Time;durP1;ratioP1;P1;durP2;ratioP2;P2;SDS_P1;SDS_P2;PMS_P1;PMS_P2;Temp;Humidity;BMP_temperature;BMP_pressure;BME280_temperature;BME280_humidity;BME280_pressure;Samples;Min_cycle;Max_cycle;Signal;HPM_P1;HPM_P2
2023/06/13 00:01:48;;;;;;;;;9.75;7.25;;;;;;;;4997604;28;45417;-84
2023/06/13 00:04:13;;;;;;;;;10.50;6.50;;;;;;;;4997050;28;45346;-84
2023/06/13 00:06:38;;;;;;;;;10.50;7.50;;;;;;;;4997376;28;45294;-85
2023/06/13 00:09:03;;;;;;;;;12.00;8.67;;;;;;;;4997556;28;45489;-84
2023/06/13 00:11:28;;;;;;;;;11.00;6.67;;;;;;;;4997487;28;45450;-84
2023/06/13 00:13:55;;;;;;;;;9.33;7.67;;;;;;;;4997191;28;45432;-84
2023/06/13 00:16:25;;;;;;;;;8.50;7.25;;;;;;;;4997250;28;46777;-84
2023/06/13 00:18:52;;;;;;;;;11.00;8.50;;;;;;;;4996826;28;45399;-84
2023/06/13 00:21:18;;;;;;;;;17.75;9.00;;;;;;;;4997373;28;45276;-84
2023/06/13 00:23:43;;;;;;;;;8.25;6.50;;;;;;;;4995939;28;45254;-84
2023/06/13 00:26:08;;;;;;;;;12.33;9.00;;;;;;;;4996990;28;46192;-84
2023/06/13 00:28:33;;;;;;;;;13.67;8.33;;;;;;;;4997076;28;45417;-84
2023/06/13 00:30:59;;;;;;;;;9.33;8.00;;;;;;;;4997199;28;45340;-84
2023/06/13 00:33:27;;;;;;;;;9.50;6.25;;;;;;;;4996432;28;45334;-84
2023/06/13 00:35:52;;;;;;;;;13.25;10.00;;;;;;;;4996888;28;47073;-83
2023/06/13 00:38:21;;;;;;;;;10.33;8.33;;;;;;;;4996739;28;45373;-85
2023/06/13 00:40:46;;;;;;;;;8.50;4.00;;;;;;;;4997044;28;45295;-83
2023/06/13 00:43:11;;;;;;;;;13.50;8.00;;;;;;;;4997142;28;45421;-84
2023/06/13 00:45:37;;;;;;;;;11.00;8.00;;;;;;;;4996132;28;45390;-84
2023/06/13 00:48:03;;;;;;;;;15.25;10.50;;;;;;;;4996380;28;45341;-84
2023/06/13 00:50:30;;;;;;;;;12.00;9.75;;;;;;;;4996852;28;45462;-84
2023/06/13 00:52:57;;;;;;;;;12.00;10.75;;;;;;;;4996759;28;45458;-84
2023/06/13 00:55:24;;;;;;;;;10.25;7.50;;;;;;;;4996239;28;46881;-84
2023/06/13 00:57:51;;;;;;;;;14.75;12.00;;;;;;;;4996621;28;45795;-84
2023/06/13 01:00:18;;;;;;;;;8.25;7.50;;;;;;;;4996722;28;45342;-84
2023/06/13 01:02:44;;;;;;;;;12.00;10.00;;;;;;;;4996338;28;45471;-84
2023/06/13 01:05:11;;;;;;;;;14.00;8.00;;;;;;;;4996214;28;45566;-84
2023/06/13 01:07:38;;;;;;;;;18.25;9.25;;;;;;;;4996401;28;45420;-84
2023/06/13 01:10:04;;;;;;;;;13.00;11.25;;;;;;;;4996670;28;45400;-84
2023/06/13 01:12:33;;;;;;;;;12.25;10.25;;;;;;;;4996549;28;45483;-84
2023/06/13 01:15:07;;;;;;;;;10.25;8.50;;;;;;;;4996050;28;46538;-84
2023/06/13 01:17:41;;;;;;;;;9.00;8.00;;;;;;;;4994670;28;45636;-85
2023/06/13 01:20:10;;;;;;;;;12.00;9.00;;;;;;;;4996452;28;45285;-84
2023/06/13 01:22:42;;;;;;;;;17.25;11.25;;;;;;;;4996258;28;45237;-84
2023/06/13 01:25:26;;;;;;;;;14.50;12.25;;;;;;;;4995856;28;45654;-84
2023/06/13 01:27:54;;;;;;;;;10.50;9.50;;;;;;;;4996068;28;45290;-84
2023/06/13 01:30:20;;;;;;;;;12.75;11.50;;;;;;;;4995909;28;45166;-84
2023/06/13 01:32:46;;;;;;;;;14.25;10.75;;;;;;;;4996191;28;45386;-85
2023/06/13 01:35:12;;;;;;;;;13.25;9.25;;;;;;;;4995663;28;46639;-85
2023/06/13 01:37:40;;;;;;;;;12.50;9.50;;;;;;;;4994782;28;45692;-84
2023/06/13 01:40:07;;;;;;;;;10.75;9.75;;;;;;;;4996143;28;45452;-84
2023/06/13 01:42:33;;;;;;;;;12.50;9.75;;;;;;;;4995875;28;45489;-84
2023/06/13 01:44:58;;;;;;;;;13.33;8.67;;;;;;;;4995290;28;48166;-84
2023/06/13 01:47:37;;;;;;;;;18.33;10.00;;;;;;;;4995924;28;45271;-83
2023/06/13 01:50:02;;;;;;;;;11.00;9.00;;;;;;;;4995933;28;45480;-84
2023/06/13 01:52:49;;;;;;;;;12.00;8.00;;;;;;;;4996005;28;45537;-84
2023/06/13 01:55:21;;;;;;;;;11.50;8.25;;;;;;;;4995543;28;47532;-83
2023/06/13 01:58:07;;;;;;;;;12.75;8.75;;;;;;;;4996704;28;45406;-84
2023/06/13 02:00:32;;;;;;;;;10.00;8.50;;;;;;;;4998654;28;45345;-84
2023/06/13 02:02:59;;;;;;;;;13.75;8.25;;;;;;;;4999388;28;45353;-84
2023/06/13 02:05:27;;;;;;;;;12.25;10.25;;;;;;;;4999179;28;45345;-84
2023/06/13 02:07:53;;;;;;;;;12.50;10.25;;;;;;;;4999026;28;45922;-84
2023/06/13 02:10:18;;;;;;;;;12.50;8.00;;;;;;;;4999209;28;45388;-85
2023/06/13 02:12:44;;;;;;;;;15.25;11.50;;;;;;;;4999100;28;45376;-84
2023/06/13 02:15:10;;;;;;;;;12.67;11.33;;;;;;;;4997103;28;47396;-83
2023/06/13 02:17:35;;;;;;;;;10.00;7.50;;;;;;;;4998952;28;45664;-85
2023/06/13 02:20:01;;;;;;;;;11.25;11.25;;;;;;;;4999100;28;45382;-83
2023/06/13 02:22:26;;;;;;;;;10.67;8.00;;;;;;;;4999071;28;45258;-84
2023/06/13 02:24:51;;;;;;;;;16.00;10.33;;;;;;;;4998836;28;46387;-85
2023/06/13 02:27:16;;;;;;;;;8.75;8.50;;;;;;;;4998922;28;45553;-84
2023/06/13 02:29:44;;;;;;;;;12.67;10.67;;;;;;;;4998704;28;45476;-83
2023/06/13 02:32:09;;;;;;;;;11.00;9.00;;;;;;;;4998813;28;45488;-84
2023/06/13 02:34:34;;;;;;;;;10.00;8.00;;;;;;;;4998380;28;46192;-84
2023/06/13 02:36:59;;;;;;;;;10.33;9.00;;;;;;;;4998748;28;45417;-84
2023/06/13 02:39:24;;;;;;;;;14.67;11.00;;;;;;;;4997580;28;45527;-84
2023/06/13 02:41:49;;;;;;;;;11.00;10.00;;;;;;;;4998807;28;45587;-84
2023/06/13 02:44:15;;;;;;;;;9.33;9.33;;;;;;;;4998123;28;45564;-84
2023/06/13 02:46:40;;;;;;;;;14.33;9.67;;;;;;;;4998495;28;45593;-84
2023/06/13 02:49:05;;;;;;;;;14.00;9.00;;;;;;;;4998713;28;45405;-84
2023/06/13 02:51:30;;;;;;;;;12.00;10.00;;;;;;;;4998645;28;45407;-85
2023/06/13 02:53:55;;;;;;;;;14.67;9.67;;;;;;;;4998122;28;46266;-84
2023/06/13 02:56:21;;;;;;;;;13.00;10.50;;;;;;;;4998453;28;45465;-84
2023/06/13 02:58:46;;;;;;;;;20.00;11.33;;;;;;;;4998219;28;45379;-84
2023/06/13 03:01:12;;;;;;;;;12.33;9.33;;;;;;;;4998543;28;45295;-84
2023/06/13 03:03:37;;;;;;;;;13.25;8.25;;;;;;;;4998275;28;46333;-84
2023/06/13 03:06:04;;;;;;;;;14.50;10.50;;;;;;;;4998109;28;45536;-85
2023/06/13 03:08:30;;;;;;;;;12.00;8.75;;;;;;;;4997895;28;45443;-85
2023/06/13 03:10:55;;;;;;;;;10.50;9.50;;;;;;;;4998425;28;45404;-85
2023/06/13 03:13:21;;;;;;;;;12.67;10.00;;;;;;;;4997469;28;45528;-84
2023/06/13 03:15:47;;;;;;;;;12.33;8.00;;;;;;;;4998108;28;45293;-85
2023/06/13 03:18:12;;;;;;;;;13.50;10.25;;;;;;;;4998048;28;45409;-85
2023/06/13 03:20:37;;;;;;;;;11.25;10.25;;;;;;;;4998176;28;45261;-84
2023/06/13 03:23:03;;;;;;;;;9.50;8.00;;;;;;;;4998231;28;46159;-84
2023/06/13 03:25:29;;;;;;;;;16.50;11.25;;;;;;;;4997921;28;45310;-83
2023/06/13 03:27:55;;;;;;;;;12.25;9.75;;;;;;;;4997853;28;45431;-84
2023/06/13 03:30:20;;;;;;;;;12.50;9.00;;;;;;;;4997976;28;45568;-85
2023/06/13 03:32:45;;;;;;;;;16.00;10.67;;;;;;;;4996547;28;48182;-84
2023/06/13 03:35:11;;;;;;;;;14.67;9.00;;;;;;;;4996473;28;45292;-84
2023/06/13 03:37:36;;;;;;;;;9.67;6.33;;;;;;;;4998029;28;45338;-84
2023/06/13 03:40:01;;;;;;;;;12.67;9.00;;;;;;;;4997920;28;45317;-84
2023/06/13 03:42:26;;;;;;;;;11.67;10.00;;;;;;;;4997328;28;45338;-84
2023/06/13 03:44:51;;;;;;;;;15.00;10.00;;;;;;;;4997536;28;45285;-84
2023/06/13 03:47:16;;;;;;;;;13.67;11.00;;;;;;;;4997834;28;45406;-84
2023/06/13 03:49:43;;;;;;;;;13.00;10.33;;;;;;;;4996486;28;45274;-84
2023/06/13 03:52:08;;;;;;;;;15.00;11.75;;;;;;;;4997412;28;47224;-85
2023/06/13 03:54:33;;;;;;;;;14.00;9.67;;;;;;;;4997424;28;45332;-84
2023/06/13 03:56:59;;;;;;;;;11.67;10.67;;;;;;;;4997237;28;45191;-83
2023/06/13 03:59:24;;;;;;;;;11.50;10.50;;;;;;;;4997559;28;45247;-85
2023/06/13 04:01:49;;;;;;;;;13.50;13.00;;;;;;;;4997379;28;46173;-84
2023/06/13 04:04:15;;;;;;;;;11.00;7.33;;;;;;;;4997339;28;45247;-84
2023/06/13 04:06:41;;;;;;;;;12.75;9.00;;;;;;;;4997263;28;45385;-85
2023/06/13 04:09:07;;;;;;;;;13.00;11.00;;;;;;;;4997292;28;45502;-84
2023/06/13 04:11:33;;;;;;;;;11.50;9.50;;;;;;;;4996804;28;47358;-84
2023/06/13 04:13:59;;;;;;;;;14.75;11.00;;;;;;;;4997043;28;45495;-85
2023/06/13 04:16:24;;;;;;;;;13.75;11.00;;;;;;;;4997319;28;45338;-84
2023/06/13 04:18:49;;;;;;;;;12.00;12.00;;;;;;;;4997319;28;45461;-84
2023/06/13 04:21:14;;;;;;;;;11.00;11.00;;;;;;;;4995952;28;45479;-84
2023/06/13 04:23:40;;;;;;;;;13.75;10.00;;;;;;;;4996806;28;45609;-84
2023/06/13 04:26:05;;;;;;;;;12.33;11.00;;;;;;;;4996684;28;45445;-85
2023/06/13 04:28:30;;;;;;;;;14.25;10.25;;;;;;;;4996984;28;45505;-85
2023/06/13 04:30:56;;;;;;;;;13.50;7.75;;;;;;;;4996833;28;46901;-84
2023/06/13 04:33:22;;;;;;;;;17.75;11.00;;;;;;;;4996606;28;45534;-85
2023/06/13 04:35:49;;;;;;;;;10.50;7.50;;;;;;;;4996949;28;45594;-84
2023/06/13 04:38:16;;;;;;;;;18.50;12.00;;;;;;;;4996952;28;45227;-85
2023/06/13 04:40:41;;;;;;;;;16.50;11.75;;;;;;;;4996413;28;47162;-84
2023/06/13 04:43:09;;;;;;;;;14.50;10.00;;;;;;;;4996659;28;45323;-85
2023/06/13 04:45:35;;;;;;;;;17.00;10.00;;;;;;;;4996941;28;45329;-84
2023/06/13 04:48:01;;;;;;;;;14.75;10.50;;;;;;;;4996695;28;45316;-84
2023/06/13 04:50:27;;;;;;;;;11.25;10.50;;;;;;;;4996677;28;45572;-84
2023/06/13 04:52:53;;;;;;;;;11.25;9.00;;;;;;;;4996298;28;45247;-85
2023/06/13 04:55:21;;;;;;;;;13.50;10.00;;;;;;;;4996597;28;45556;-84
2023/06/13 04:57:46;;;;;;;;;13.00;9.00;;;;;;;;4996595;28;45389;-85
2023/06/13 05:00:11;;;;;;;;;11.00;10.50;;;;;;;;4996620;28;46139;-84
2023/06/13 05:02:41;;;;;;;;;9.00;9.00;;;;;;;;4995168;28;45677;-83
2023/06/13 05:05:07;;;;;;;;;12.75;10.75;;;;;;;;4996611;28;45366;-85
2023/06/13 05:07:32;;;;;;;;;17.25;11.50;;;;;;;;4995966;28;45689;-84
2023/06/13 05:09:57;;;;;;;;;10.33;8.33;;;;;;;;4996203;28;46796;-84
2023/06/13 05:12:22;;;;;;;;;18.00;11.00;;;;;;;;4995162;28;45513;-84
2023/06/13 05:14:48;;;;;;;;;16.75;10.75;;;;;;;;4994775;28;45513;-85
2023/06/13 05:17:14;;;;;;;;;16.75;13.50;;;;;;;;4996507;28;45464;-84
2023/06/13 05:19:40;;;;;;;;;13.50;9.75;;;;;;;;4995966;28;47414;-83
2023/06/13 05:22:05;;;;;;;;;18.25;9.00;;;;;;;;4996048;28;45436;-84
2023/06/13 05:24:31;;;;;;;;;15.50;12.00;;;;;;;;4996201;28;45435;-85
2023/06/13 05:26:57;;;;;;;;;12.50;9.25;;;;;;;;4996207;28;45431;-84
2023/06/13 05:29:22;;;;;;;;;11.25;11.00;;;;;;;;4996068;28;47178;-85
2023/06/13 05:31:47;;;;;;;;;14.33;10.00;;;;;;;;4995663;28;45315;-84
2023/06/13 05:34:12;;;;;;;;;12.00;9.33;;;;;;;;4995805;28;45458;-85
2023/06/13 05:36:38;;;;;;;;;13.33;11.67;;;;;;;;4995638;28;45290;-86
2023/06/13 05:39:03;;;;;;;;;15.33;12.33;;;;;;;;4995379;28;45581;-87
2023/06/13 05:41:28;;;;;;;;;9.67;8.67;;;;;;;;4988873;28;45450;-86
2023/06/13 05:43:53;;;;;;;;;17.67;13.67;;;;;;;;4994485;28;45545;-85
2023/06/13 05:46:18;;;;;;;;;12.67;10.33;;;;;;;;4998933;28;45404;-86
2023/06/13 05:48:44;;;;;;;;;18.67;10.00;;;;;;;;5015160;28;46425;-86
2023/06/13 05:51:09;;;;;;;;;14.50;11.00;;;;;;;;4996439;28;45402;-86
2023/06/13 05:53:35;;;;;;;;;14.00;12.00;;;;;;;;4995709;28;45630;-85
2023/06/13 05:56:00;;;;;;;;;14.75;10.75;;;;;;;;4995566;28;45444;-87
2023/06/13 05:58:25;;;;;;;;;12.25;11.00;;;;;;;;4996568;28;46767;-85
2023/06/13 06:00:52;;;;;;;;;16.00;10.00;;;;;;;;5015575;28;45457;-86
2023/06/13 06:03:17;;;;;;;;;13.25;9.25;;;;;;;;4997427;28;45537;-85
2023/06/13 06:05:42;;;;;;;;;11.33;8.00;;;;;;;;4995430;28;45258;-85
2023/06/13 06:08:07;;;;;;;;;16.33;12.67;;;;;;;;4995372;28;46073;-82
2023/06/13 06:10:32;;;;;;;;;10.67;10.33;;;;;;;;4995622;28;45283;-84
2023/06/13 06:12:58;;;;;;;;;13.00;11.00;;;;;;;;4994748;28;45306;-86
2023/06/13 06:15:23;;;;;;;;;11.00;10.33;;;;;;;;4995271;28;45381;-85
2023/06/13 06:17:50;;;;;;;;;15.33;11.67;;;;;;;;4995312;28;46123;-85
2023/06/13 06:20:16;;;;;;;;;12.50;8.75;;;;;;;;4995464;28;45350;-85
2023/06/13 06:22:41;;;;;;;;;19.75;12.25;;;;;;;;4994449;28;45494;-86
2023/06/13 06:25:08;;;;;;;;;10.67;9.67;;;;;;;;4995612;28;45437;-85
2023/06/13 06:27:33;;;;;;;;;16.75;12.50;;;;;;;;4995314;28;46058;-85
2023/06/13 06:29:59;;;;;;;;;17.00;12.33;;;;;;;;4995451;28;45423;-85
2023/06/13 06:32:24;;;;;;;;;11.00;10.00;;;;;;;;4995320;28;45481;-85
2023/06/13 06:34:49;;;;;;;;;15.00;11.00;;;;;;;;4993481;28;45540;-85
2023/06/13 06:37:14;;;;;;;;;12.67;10.00;;;;;;;;4995157;28;46588;-84
2023/06/13 06:39:39;;;;;;;;;14.33;11.00;;;;;;;;4995178;28;45318;-85
2023/06/13 06:42:05;;;;;;;;;11.67;11.00;;;;;;;;4995403;28;45480;-85
2023/06/13 06:44:30;;;;;;;;;15.00;10.75;;;;;;;;4996925;28;45431;-85
2023/06/13 06:46:55;;;;;;;;;21.00;12.00;;;;;;;;4998611;28;45449;-85
2023/06/13 06:49:20;;;;;;;;;15.00;12.00;;;;;;;;4998140;28;45480;-85
2023/06/13 06:51:46;;;;;;;;;13.33;9.67;;;;;;;;4997370;28;45472;-84
2023/06/13 06:54:11;;;;;;;;;10.75;10.50;;;;;;;;4998536;28;45456;-83
2023/06/13 06:56:36;;;;;;;;;16.00;10.33;;;;;;;;4998236;28;46277;-83
2023/06/13 06:59:01;;;;;;;;;11.00;9.67;;;;;;;;4995493;28;45369;-81
2023/06/13 07:01:27;;;;;;;;;15.67;10.33;;;;;;;;4984758;28;45403;-83
2023/06/13 07:03:52;;;;;;;;;14.00;10.75;;;;;;;;4985903;28;45545;-83
2023/06/13 07:06:19;;;;;;;;;8.33;8.33;;;;;;;;4990630;28;46549;-82
2023/06/13 07:08:44;;;;;;;;;7.75;7.75;;;;;;;;4985078;28;46618;-82
2023/06/13 07:11:09;;;;;;;;;12.00;6.67;;;;;;;;4994451;28;45464;-82
2023/06/13 07:13:34;;;;;;;;;9.00;7.33;;;;;;;;4997370;28;45417;-83
2023/06/13 07:16:00;;;;;;;;;9.33;7.67;;;;;;;;4996712;28;45400;-82
2023/06/13 07:18:25;;;;;;;;;9.00;8.67;;;;;;;;4996725;28;45360;-83
2023/06/13 07:20:50;;;;;;;;;8.50;6.50;;;;;;;;4992665;28;45453;-81
2023/06/13 07:23:15;;;;;;;;;9.00;9.00;;;;;;;;4975101;28;45396;-83
2023/06/13 07:25:41;;;;;;;;;10.33;7.00;;;;;;;;4995940;28;46525;-86
2023/06/13 07:28:06;;;;;;;;;8.00;7.25;;;;;;;;4996848;28;45297;-84
2023/06/13 07:30:31;;;;;;;;;9.25;6.50;;;;;;;;4996747;28;45314;-84
2023/06/13 07:32:57;;;;;;;;;8.75;5.50;;;;;;;;4996432;28;45445;-83
2023/06/13 07:35:23;;;;;;;;;6.67;6.33;;;;;;;;4996033;28;45459;-85
2023/06/13 07:37:49;;;;;;;;;8.25;6.00;;;;;;;;4996820;28;45414;-88
2023/06/13 07:40:15;;;;;;;;;12.25;6.00;;;;;;;;5010653;28;45392;-86
2023/06/13 07:42:40;;;;;;;;;6.00;5.75;;;;;;;;4994663;28;45556;-87
2023/06/13 07:45:06;;;;;;;;;5.25;4.50;;;;;;;;4994540;28;45441;-86
2023/06/13 07:47:31;;;;;;;;;11.50;7.00;;;;;;;;4996702;28;45377;-85
2023/06/13 07:49:56;;;;;;;;;5.00;4.25;;;;;;;;4986154;28;45612;-85
2023/06/13 07:52:21;;;;;;;;;8.00;6.00;;;;;;;;4995806;28;45376;-86
2023/06/13 07:54:46;;;;;;;;;10.00;6.00;;;;;;;;4989546;28;46769;-84
2023/06/13 07:57:12;;;;;;;;;11.67;6.67;;;;;;;;4986343;28;45499;-85
2023/06/13 07:59:37;;;;;;;;;10.00;5.75;;;;;;;;4989949;28;45473;-85
2023/06/13 08:02:03;;;;;;;;;10.00;6.67;;;;;;;;4990884;28;45750;-89
2023/06/13 08:04:28;;;;;;;;;5.25;4.00;;;;;;;;4970366;28;47557;-83
2023/06/13 08:06:53;;;;;;;;;11.67;5.67;;;;;;;;4995331;28;45353;-86
2023/06/13 08:09:19;;;;;;;;;4.67;4.67;;;;;;;;4979032;28;45328;-86
2023/06/13 08:11:44;;;;;;;;;4.75;4.75;;;;;;;;4992116;28;45780;-86
2023/06/13 08:14:12;;;;;;;;;7.25;5.50;;;;;;;;4987475;28;45666;-84
2023/06/13 08:16:38;;;;;;;;;8.25;6.00;;;;;;;;4995017;28;45912;-86
2023/06/13 08:19:04;;;;;;;;;5.00;3.75;;;;;;;;4978999;28;45428;-85
2023/06/13 08:21:29;;;;;;;;;7.75;5.00;;;;;;;;4988151;28;45809;-85
2023/06/13 08:23:55;;;;;;;;;9.25;7.00;;;;;;;;4995622;28;47118;-85
2023/06/13 08:26:20;;;;;;;;;6.75;5.25;;;;;;;;4996427;28;45671;-84
2023/06/13 08:28:47;;;;;;;;;7.75;5.50;;;;;;;;4988683;28;45478;-85
2023/06/13 08:31:13;;;;;;;;;9.00;7.00;;;;;;;;4994333;28;45555;-85
2023/06/13 08:33:38;;;;;;;;;7.75;5.50;;;;;;;;4988122;28;46174;-85
2023/06/13 08:36:04;;;;;;;;;7.33;5.00;;;;;;;;4988850;28;45598;-86
2023/06/13 08:38:29;;;;;;;;;8.75;5.00;;;;;;;;4996278;28;45430;-84
2023/06/13 08:40:55;;;;;;;;;8.00;6.00;;;;;;;;4987607;28;45287;-85
2023/06/13 08:43:20;;;;;;;;;7.67;4.00;;;;;;;;4995523;28;46692;-85
2023/06/13 08:45:45;;;;;;;;;11.00;7.33;;;;;;;;4991411;28;45653;-84
2023/06/13 08:48:10;;;;;;;;;5.00;5.00;;;;;;;;4989815;28;45366;-85
2023/06/13 08:50:36;;;;;;;;;12.00;7.00;;;;;;;;4990029;28;45467;-85
2023/06/13 08:53:01;;;;;;;;;10.25;6.25;;;;;;;;4995822;28;45468;-85
2023/06/13 08:55:28;;;;;;;;;7.25;6.25;;;;;;;;4995569;28;45646;-85
2023/06/13 08:57:54;;;;;;;;;10.00;6.00;;;;;;;;4995645;28;45377;-85
2023/06/13 09:00:19;;;;;;;;;7.50;6.00;;;;;;;;4990131;28;45413;-84
2023/06/13 09:02:46;;;;;;;;;9.75;5.00;;;;;;;;4993653;28;47206;-86
2023/06/13 09:05:13;;;;;;;;;6.75;5.25;;;;;;;;4995598;28;45420;-85
2023/06/13 09:07:39;;;;;;;;;7.00;7.00;;;;;;;;4984201;28;45447;-85
2023/06/13 09:10:06;;;;;;;;;9.00;6.00;;;;;;;;4988808;28;45326;-85
2023/06/13 09:12:31;;;;;;;;;6.75;3.25;;;;;;;;4970800;28;47278;-84
2023/06/13 09:14:57;;;;;;;;;4.50;4.25;;;;;;;;4995209;28;45536;-85
2023/06/13 09:17:23;;;;;;;;;6.75;6.00;;;;;;;;4990423;28;45350;-84
2023/06/13 09:19:48;;;;;;;;;7.75;6.00;;;;;;;;4989700;28;45378;-84
2023/06/13 09:22:16;;;;;;;;;8.50;6.75;;;;;;;;4972942;28;47394;-85
2023/06/13 09:24:41;;;;;;;;;11.25;6.00;;;;;;;;4993066;28;45552;-85
2023/06/13 09:27:08;;;;;;;;;8.50;6.00;;;;;;;;4994970;28;45477;-85
2023/06/13 09:29:34;;;;;;;;;7.00;7.00;;;;;;;;4987934;28;45425;-84
2023/06/13 09:32:00;;;;;;;;;7.75;5.00;;;;;;;;4982220;28;46555;-84
2023/06/13 09:34:25;;;;;;;;;9.00;6.00;;;;;;;;4979148;28;45423;-84
2023/06/13 09:36:51;;;;;;;;;8.00;4.75;;;;;;;;4989132;28;45658;-82
2023/06/13 09:39:16;;;;;;;;;7.33;6.33;;;;;;;;4994942;28;45378;-86
2023/06/13 09:41:41;;;;;;;;;5.00;5.00;;;;;;;;4994026;28;46305;-84
2023/06/13 09:44:06;;;;;;;;;6.00;6.00;;;;;;;;4992841;28;45286;-85
2023/06/13 09:46:36;;;;;;;;;8.75;6.25;;;;;;;;4995159;28;45290;-86
2023/06/13 09:49:01;;;;;;;;;5.75;5.00;;;;;;;;4993008;28;45381;-83
2023/06/13 09:51:29;;;;;;;;;6.50;6.25;;;;;;;;4995087;28;45691;-84
2023/06/13 09:53:54;;;;;;;;;8.75;5.75;;;;;;;;4994442;28;45692;-85
2023/06/13 09:56:20;;;;;;;;;4.00;4.00;;;;;;;;4976728;28;45383;-83
2023/06/13 09:58:45;;;;;;;;;5.33;5.00;;;;;;;;4992926;28;45299;-83
2023/06/13 10:01:14;;;;;;;;;6.33;6.00;;;;;;;;4985655;28;47114;-83
2023/06/13 10:03:41;;;;;;;;;7.75;6.00;;;;;;;;4989637;28;45806;-82
2023/06/13 10:06:06;;;;;;;;;6.75;4.50;;;;;;;;4992959;28;45445;-86
2023/06/13 10:08:33;;;;;;;;;9.33;6.00;;;;;;;;4993933;28;45393;-85
2023/06/13 10:11:01;;;;;;;;;5.00;5.00;;;;;;;;4987128;28;46269;-86
2023/06/13 10:13:29;;;;;;;;;6.25;5.25;;;;;;;;4982362;28;45329;-85
2023/06/13 10:15:57;;;;;;;;;5.75;4.50;;;;;;;;4993431;28;45401;-86
2023/06/13 10:18:25;;;;;;;;;5.75;5.25;;;;;;;;4987777;28;45366;-87
2023/06/13 10:20:50;;;;;;;;;4.50;4.50;;;;;;;;4997877;28;46300;-85
2023/06/13 10:23:16;;;;;;;;;5.25;3.75;;;;;;;;4997617;28;45370;-86
2023/06/13 10:25:42;;;;;;;;;5.00;5.00;;;;;;;;4997131;28;45432;-86
2023/06/13 10:28:15;;;;;;;;;4.50;4.00;;;;;;;;4986282;28;45712;-86
2023/06/13 10:30:43;;;;;;;;;9.50;6.00;;;;;;;;4989080;28;47170;-88
2023/06/13 10:33:11;;;;;;;;;5.00;5.00;;;;;;;;4997608;28;45310;-88
2023/06/13 10:35:55;;;;;;;;;6.00;5.75;;;;;;;;4995242;28;45535;-88
2023/06/13 10:38:26;;;;;;;;;6.25;4.50;;;;;;;;4995419;28;45301;-84
2023/06/13 10:41:04;;;;;;;;;12.25;4.50;;;;;;;;4996742;28;46695;-85
2023/06/13 10:43:31;;;;;;;;;7.00;7.00;;;;;;;;4995615;28;45301;-84
2023/06/13 10:46:00;;;;;;;;;7.25;4.75;;;;;;;;4998323;28;45370;-90
2023/06/13 10:48:34;;;;;;;;;7.00;5.25;;;;;;;;4995896;28;45545;-89
2023/06/13 10:50:59;;;;;;;;;5.75;4.50;;;;;;;;4996558;28;47348;-92
2023/06/13 10:53:38;;;;;;;;;;;;;;;;;;;;;
2023/06/13 10:56:06;;;;;;;;;4.75;4.50;;;;;;;;4989204;28;69654;-83
2023/06/13 10:58:34;;;;;;;;;4.50;3.25;;;;;;;;4992003;28;45529;-84
2023/06/13 11:01:18;;;;;;;;;5.50;4.00;;;;;;;;5001540;28;46568;-84
2023/06/13 11:03:44;;;;;;;;;6.25;5.00;;;;;;;;4995181;28;45664;-84
2023/06/13 11:06:09;;;;;;;;;8.25;4.50;;;;;;;;4991117;28;45493;-84
2023/06/13 11:08:37;;;;;;;;;6.25;5.00;;;;;;;;4996410;28;45608;-82
2023/06/13 11:11:02;;;;;;;;;5.25;5.25;;;;;;;;4992328;28;47179;-86
2023/06/13 11:13:31;;;;;;;;;6.00;4.75;;;;;;;;4997216;28;45485;-83
2023/06/13 11:15:57;;;;;;;;;6.75;5.25;;;;;;;;4988959;28;45515;-86
2023/06/13 11:18:23;;;;;;;;;8.25;5.25;;;;;;;;4997057;28;45303;-87
2023/06/13 11:20:53;;;;;;;;;4.25;2.75;;;;;;;;4977875;28;47249;-87
2023/06/13 11:23:22;;;;;;;;;8.00;6.00;;;;;;;;4998694;28;45771;-85
2023/06/13 11:25:48;;;;;;;;;6.50;4.00;;;;;;;;4995800;28;45431;-85
2023/06/13 11:28:17;;;;;;;;;6.75;4.00;;;;;;;;4992798;28;45851;-87
2023/06/13 11:30:44;;;;;;;;;7.00;5.25;;;;;;;;4985062;28;45716;-86
2023/06/13 11:33:09;;;;;;;;;6.50;4.00;;;;;;;;4994747;28;45837;-87
2023/06/13 11:35:36;;;;;;;;;5.00;4.00;;;;;;;;4996867;28;45357;-87
2023/06/13 11:38:05;;;;;;;;;3.50;3.00;;;;;;;;5009645;28;45323;-87
2023/06/13 11:40:39;;;;;;;;;6.25;3.00;;;;;;;;4982211;28;47255;-89
2023/06/13 11:43:04;;;;;;;;;6.50;3.00;;;;;;;;4964336;28;45837;-86
2023/06/13 11:45:30;;;;;;;;;6.67;4.00;;;;;;;;4996819;28;45424;-86
2023/06/13 11:47:56;;;;;;;;;4.00;3.00;;;;;;;;4996688;28;45421;-86
2023/06/13 11:50:25;;;;;;;;;5.25;4.00;;;;;;;;4978608;28;47685;-86
2023/06/13 11:53:09;;;;;;;;;9.25;5.00;;;;;;;;4985163;28;45488;-86
2023/06/13 11:55:35;;;;;;;;;5.00;3.00;;;;;;;;4995397;28;45493;-84
2023/06/13 11:58:01;;;;;;;;;5.75;2.75;;;;;;;;4995712;28;45429;-84
2023/06/13 12:00:27;;;;;;;;;9.00;5.00;;;;;;;;4996686;28;45954;-84
2023/06/13 12:02:55;;;;;;;;;5.00;5.00;;;;;;;;4996432;28;45208;-86
2023/06/13 12:05:21;;;;;;;;;3.75;3.75;;;;;;;;4978973;28;45380;-84
2023/06/13 12:07:46;;;;;;;;;3.75;3.75;;;;;;;;4996750;28;45733;-84
2023/06/13 12:10:15;;;;;;;;;6.00;4.67;;;;;;;;4995238;28;46467;-83
2023/06/13 12:12:40;;;;;;;;;4.75;3.75;;;;;;;;4995776;28;45512;-83
2023/06/13 12:15:13;;;;;;;;;3.50;3.25;;;;;;;;4996006;28;45477;-81
2023/06/13 12:18:08;;;;;;;;;5.00;3.50;;;;;;;;4995946;28;45509;-81
2023/06/13 12:20:45;;;;;;;;;4.25;4.00;;;;;;;;4982752;28;46327;-83
2023/06/13 12:23:10;;;;;;;;;3.25;2.50;;;;;;;;4995619;28;45357;-82
2023/06/13 12:25:36;;;;;;;;;7.33;5.67;;;;;;;;4996420;28;45348;-84
2023/06/13 12:28:01;;;;;;;;;4.00;4.00;;;;;;;;4996041;28;45423;-87
2023/06/13 12:30:27;;;;;;;;;7.00;3.75;;;;;;;;4994506;28;46309;-83
2023/06/13 12:32:56;;;;;;;;;5.25;5.00;;;;;;;;4989697;28;45636;-82
2023/06/13 12:35:23;;;;;;;;;4.75;4.50;;;;;;;;4996272;28;45397;-83
2023/06/13 12:37:55;;;;;;;;;3.25;2.00;;;;;;;;4989486;28;45610;-81
2023/06/13 12:40:24;;;;;;;;;4.50;4.25;;;;;;;;4993024;28;47248;-81
2023/06/13 12:42:50;;;;;;;;;6.25;3.00;;;;;;;;4993037;28;45300;-80
2023/06/13 12:45:15;;;;;;;;;8.67;4.00;;;;;;;;4995701;28;45278;-81
2023/06/13 12:47:40;;;;;;;;;6.50;4.25;;;;;;;;4995735;28;45274;-80
2023/06/13 12:50:07;;;;;;;;;4.00;4.00;;;;;;;;4994987;28;46148;-82
2023/06/13 12:52:32;;;;;;;;;6.75;3.00;;;;;;;;4995207;28;45281;-80
2023/06/13 12:55:00;;;;;;;;;6.00;4.25;;;;;;;;4980749;28;45372;-82
2023/06/13 12:57:26;;;;;;;;;4.00;3.50;;;;;;;;4990268;28;45627;-81
2023/06/13 12:59:52;;;;;;;;;4.00;3.00;;;;;;;;4989856;28;46537;-81
2023/06/13 13:02:19;;;;;;;;;4.00;2.75;;;;;;;;4995591;28;45579;-82
2023/06/13 13:04:45;;;;;;;;;4.50;4.00;;;;;;;;4994918;28;45473;-81
2023/06/13 13:07:12;;;;;;;;;4.50;3.50;;;;;;;;4977248;28;45511;-80
2023/06/13 13:09:39;;;;;;;;;7.50;3.00;;;;;;;;4994688;28;46754;-79
2023/06/13 13:12:06;;;;;;;;;3.75;3.75;;;;;;;;4995166;28;45441;-80
2023/06/13 13:14:31;;;;;;;;;7.25;5.00;;;;;;;;4994514;28;45441;-80
2023/06/13 13:16:56;;;;;;;;;2.00;2.00;;;;;;;;4983530;28;45584;-80
2023/06/13 13:19:22;;;;;;;;;3.50;2.75;;;;;;;;4993030;28;46963;-81
2023/06/13 13:21:49;;;;;;;;;3.75;3.00;;;;;;;;4994167;28;45805;-82
2023/06/13 13:24:15;;;;;;;;;5.25;4.00;;;;;;;;4987437;28;45591;-81
2023/06/13 13:26:41;;;;;;;;;5.25;3.50;;;;;;;;4994372;28;45427;-80
2023/06/13 13:29:06;;;;;;;;;5.25;4.75;;;;;;;;4995223;28;46993;-81
2023/06/13 13:31:31;;;;;;;;;4.67;3.33;;;;;;;;4987870;28;45420;-81
2023/06/13 13:33:56;;;;;;;;;4.00;4.00;;;;;;;;4991303;28;45342;-81
2023/06/13 13:36:22;;;;;;;;;3.00;3.00;;;;;;;;4990279;28;45561;-82
2023/06/13 13:38:47;;;;;;;;;6.33;4.00;;;;;;;;4994264;28;47186;-80
2023/06/13 13:41:12;;;;;;;;;3.50;2.50;;;;;;;;4994234;28;45421;-79
2023/06/13 13:43:38;;;;;;;;;6.25;4.00;;;;;;;;4992188;28;45917;-80
2023/06/13 13:46:03;;;;;;;;;4.00;4.00;;;;;;;;4995002;28;45413;-81
2023/06/13 13:48:28;;;;;;;;;7.00;6.00;;;;;;;;4994949;28;46198;-82
2023/06/13 13:50:53;;;;;;;;;5.67;4.67;;;;;;;;4982446;28;45612;-80
2023/06/13 13:53:18;;;;;;;;;6.00;4.00;;;;;;;;4986603;28;45327;-80
2023/06/13 13:55:44;;;;;;;;;4.33;3.00;;;;;;;;4999979;28;45417;-80
2023/06/13 13:58:09;;;;;;;;;4.50;3.50;;;;;;;;4988368;28;47206;-82
2023/06/13 14:00:35;;;;;;;;;4.00;4.00;;;;;;;;5001858;28;45637;-80
2023/06/13 14:03:00;;;;;;;;;5.75;4.00;;;;;;;;5002186;28;45314;-80
2023/06/13 14:05:25;;;;;;;;;4.33;3.00;;;;;;;;4988484;28;46136;-79
2023/06/13 14:07:50;;;;;;;;;3.67;3.67;;;;;;;;5001895;28;45927;-80
2023/06/13 14:10:16;;;;;;;;;4.00;3.00;;;;;;;;4989830;28;45416;-81
2023/06/13 14:12:41;;;;;;;;;4.00;3.33;;;;;;;;4997886;28;45904;-82
2023/06/13 14:15:06;;;;;;;;;7.00;5.33;;;;;;;;5000470;28;45633;-82
2023/06/13 14:17:31;;;;;;;;;5.50;3.50;;;;;;;;5001867;28;46091;-82
2023/06/13 14:19:57;;;;;;;;;6.00;4.00;;;;;;;;4996806;28;45479;-79
2023/06/13 14:22:22;;;;;;;;;5.33;3.33;;;;;;;;5002003;28;45270;-80
2023/06/13 14:24:47;;;;;;;;;4.00;3.00;;;;;;;;5001996;28;45429;-81
2023/06/13 14:27:12;;;;;;;;;6.00;4.67;;;;;;;;4983389;28;45294;-79
2023/06/13 14:29:37;;;;;;;;;7.67;5.33;;;;;;;;4991636;28;45741;-79